Chorlton cum Hardy, United Kingdom
Current Conditions -  °F | °C
As of 8:50 AM on Friday 24 Oct 2014 (Local Time) from EGCC Reporting Station
Moderate Rain Moderate Rain  
Wind Chill: 11°   Ceiling: 600
Heat Index: 11°   Visibility: 1.1mi
Dew Point: 11°   Wind: 5mph
Humidity: 100%   Direction: 260°W
Pressure: 29.88"   Gusts: NA
Location:  53.44°N, 2.26°W
Report Text: EGCC 240750Z 26004KT 220V310 1800 DZRA FEW001 SCT002 BKN006 11/11 Q1012 BECMG 9999 NSW FEW006
Loading
Personal Weather Stations






























Interactive Weather Map
Tropical Storm Tracking
New forecast layout! Learn more

10-Day Weather Forecast

Advertisements
Track Severe Weather on mobile